Time;durP1;ratioP1;P1;durP2;ratioP2;P2;SDS_P1;SDS_P2;PMS_P1;PMS_P2;Temp;Humidity;BMP_temperature;BMP_pressure;BME280_temperature;BME280_humidity;BME280_pressure;Samples;Min_cycle;Max_cycle;Signal;HPM_P1;HPM_P2
2022/02/12 00:00:56;;;;;;;7.07;3.10;;;;;;;;;;5054179;28;20072;-45
2022/02/12 00:03:24;;;;;;;5.22;2.88;;;;;;;;;;5054131;28;20033;-45
2022/02/12 00:05:50;;;;;;;5.03;2.58;;;;;;;;;;5054098;28;20073;-45
2022/02/12 00:08:16;;;;;;;5.90;2.65;;;;;;;;;;5054138;28;20064;-46
2022/02/12 00:10:41;;;;;;;4.90;2.80;;;;;;;;;;5054021;28;20037;-45
2022/02/12 00:13:11;;;;;;;7.78;2.97;;;16.00;88.50;;;;;;5053940;28;20045;-46
2022/02/12 00:15:38;;;;;;;3.05;2.75;;;;;;;;;;5054199;28;20442;-45
2022/02/12 00:18:04;;;;;;;6.45;2.97;;;;;;;;;;5054152;28;20395;-45
2022/02/12 00:20:30;;;;;;;5.72;2.83;;;;;;;;;;5054050;28;20025;-45
2022/02/12 00:22:56;;;;;;;5.28;2.80;;;;;;;;;;5053849;28;20041;-44
2022/02/12 00:25:22;;;;;;;5.53;2.90;;;;;;;;;;5053778;28;20476;-44
2022/02/12 00:27:48;;;;;;;4.55;2.85;;;;;;;;;;5053585;28;20033;-45
2022/02/12 00:30:14;;;;;;;5.25;2.92;;;;;;;;;;5053587;28;20033;-44
2022/02/12 00:32:40;;;;;;;7.63;3.00;;;;;;;;;;5053552;28;20033;-44
2022/02/12 00:35:06;;;;;;;5.50;3.08;;;;;;;;;;5053359;28;20057;-47
2022/02/12 00:37:32;;;;;;;4.70;2.80;;;;;;;;;;5053469;28;20062;-46
2022/02/12 00:39:59;;;;;;;6.57;3.25;;;;;;;;;;5053453;28;20033;-45
2022/02/12 00:42:25;;;;;;;5.68;2.70;;;;;;;;;;5053402;28;20033;-46
2022/02/12 00:44:51;;;;;;;8.05;3.17;;;;;;;;;;5053317;28;20147;-45
2022/02/12 00:47:17;;;;;;;4.25;2.70;;;;;;;;;;5053284;28;20476;-45
2022/02/12 00:49:43;;;;;;;4.22;2.60;;;;;;;;;;5053067;28;20037;-45
2022/02/12 00:52:09;;;;;;;6.40;3.00;;;;;;;;;;5053262;28;20036;-46
2022/02/12 00:54:37;;;;;;;5.07;2.58;;;;;;;;;;5053168;28;20372;-46
2022/02/12 00:57:03;;;;;;;6.57;3.00;;;;;;;;;;5053154;28;20103;-45
2022/02/12 00:59:29;;;;;;;5.35;3.05;;;;;;;;;;5053094;28;20107;-45
2022/02/12 01:01:55;;;;;;;5.30;2.90;;;;;;;;;;5053478;28;20052;-45
2022/02/12 01:04:21;;;;;;;6.13;2.45;;;;;;;;;;5051716;28;20591;-44
2022/02/12 01:06:47;;;;;;;9.30;2.78;;;;;;;;;;5052771;28;20028;-45
2022/02/12 01:09:13;;;;;;;6.63;3.05;;;;;;;;;;5052858;28;20048;-45
2022/02/12 01:11:39;;;;;;;8.20;2.70;;;;;;;;;;5052858;28;20033;-44
2022/02/12 01:14:05;;;;;;;4.88;2.78;;;;;;;;;;5052836;28;20052;-45
2022/02/12 01:16:31;;;;;;;5.93;2.55;;;;;;;;;;5052732;28;20025;-46
2022/02/12 01:18:57;;;;;;;6.63;2.67;;;;;;;;;;5052869;28;20029;-45
2022/02/12 01:21:23;;;;;;;7.05;3.03;;;;;;;;;;5052667;28;20033;-44
2022/02/12 01:23:50;;;;;;;4.40;2.50;;;;;;;;;;5052631;28;20483;-44
2022/02/12 01:26:16;;;;;;;3.67;2.40;;;15.70;88.60;;;;;;5052871;28;20361;-46
2022/02/12 01:28:42;;;;;;;6.22;2.92;;;;;;;;;;5052457;28;20391;-45
2022/02/12 01:31:08;;;;;;;4.50;2.50;;;;;;;;;;5052487;28;20102;-45
2022/02/12 01:33:34;;;;;;;5.88;2.33;;;;;;;;;;5052407;28;20037;-45
2022/02/12 01:36:00;;;;;;;4.30;2.20;;;;;;;;;;5052350;28;20052;-45
2022/02/12 01:38:28;;;;;;;4.18;2.40;;;;;;;;;;5052463;28;20029;-46
2022/02/12 01:40:54;;;;;;;3.40;2.30;;;;;;;;;;5052597;28;20466;-46
2022/02/12 01:43:20;;;;;;;4.90;2.78;;;;;;;;;;5052346;28;20032;-45
2022/02/12 01:45:46;;;;;;;4.88;2.70;;;;;;;;;;5052354;28;20466;-46
2022/02/12 01:48:13;;;;;;;4.88;1.80;;;;;;;;;;5052233;28;20140;-45
2022/02/12 01:50:39;;;;;;;4.13;2.00;;;;;;;;;;5052163;28;20025;-45
2022/02/12 01:53:05;;;;;;;3.47;2.10;;;;;;;;;;5052173;28;20029;-45
2022/02/12 01:55:31;;;;;;;3.42;2.30;;;;;;;;;;5052243;28;20497;-44
2022/02/12 01:57:57;;;;;;;3.67;2.05;;;;;;;;;;5052151;28;20043;-44
2022/02/12 02:00:23;;;;;;;5.57;2.38;;;;;;;;;;5052325;28;20029;-45
2022/02/12 02:02:49;;;;;;;5.18;2.30;;;;;;;;;;5052082;28;20036;-45
2022/02/12 02:05:18;;;;;;;4.00;2.50;;;15.50;90.90;;;;;;5052008;28;20055;-45
2022/02/12 02:07:44;;;;;;;3.90;2.33;;;;;;;;;;5051928;28;20140;-45
2022/02/12 02:10:11;;;;;;;6.10;2.72;;;;;;;;;;5052009;28;20029;-45
2022/02/12 02:12:37;;;;;;;2.95;2.13;;;;;;;;;;5052063;28;20036;-45
2022/02/12 02:15:05;;;;;;;5.00;2.25;;;15.40;90.80;;;;;;5052076;28;20029;-44
2022/02/12 02:17:31;;;;;;;5.30;2.25;;;;;;;;;;5052615;28;20017;-45
2022/02/12 02:19:57;;;;;;;3.40;2.05;;;;;;;;;;5056114;28;20029;-44
2022/02/12 02:22:26;;;;;;;4.35;2.45;;;;;;;;;;5056124;28;20106;-44
2022/02/12 02:24:52;;;;;;;3.42;2.10;;;;;;;;;;5055978;28;20051;-46
2022/02/12 02:27:20;;;;;;;3.30;2.30;;;15.30;91.00;;;;;;5056035;28;20456;-45
2022/02/12 02:29:46;;;;;;;6.13;1.92;;;;;;;;;;5055803;28;20395;-45
2022/02/12 02:32:12;;;;;;;3.90;2.17;;;;;;;;;;5055942;28;20052;-46
2022/02/12 02:34:50;;;;;;;4.50;2.60;;;15.30;91.00;;;;;;5055840;28;20098;-45
2022/02/12 02:37:16;;;;;;;3.63;2.13;;;;;;;;;;5056079;28;20450;-45
2022/02/12 02:39:42;;;;;;;3.90;2.20;;;;;;;;;;5055759;28;20025;-45
2022/02/12 02:42:08;;;;;;;4.63;2.28;;;;;;;;;;5055620;28;20075;-45
2022/02/12 02:44:34;;;;;;;5.32;2.58;;;;;;;;;;5055599;28;20135;-45
2022/02/12 02:47:32;;;;;;;5.95;2.28;;;;;;;;;;5055874;28;20056;-45
2022/02/12 02:49:46;;;;;;;3.78;2.28;;;;;;;;;;5055564;28;20120;-46
2022/02/12 02:57:41;;;;;;;4.60;1.95;;;;;;;;;;5055780;28;20113;-45
2022/02/12 03:00:07;;;;;;;3.88;2.30;;;;;;;;;;5055440;28;20479;-45
2022/02/12 03:02:33;;;;;;;3.40;2.00;;;;;;;;;;5055363;28;20057;-45
2022/02/12 03:04:59;;;;;;;2.58;1.83;;;;;;;;;;5055393;28;20059;-44
2022/02/12 03:07:25;;;;;;;5.03;2.10;;;;;;;;;;5055388;28;20040;-45
2022/02/12 03:09:51;;;;;;;2.65;2.00;;;;;;;;;;5055280;28;20044;-45
2022/02/12 03:12:17;;;;;;;3.22;1.80;;;;;;;;;;5055203;28;20025;-45
2022/02/12 03:14:43;;;;;;;4.00;2.05;;;;;;;;;;5055137;28;20061;-45
2022/02/12 03:17:09;;;;;;;3.95;2.05;;;;;;;;;;5054954;28;20032;-44
2022/02/12 03:19:34;;;;;;;5.97;2.53;;;;;;;;;;5055054;28;20021;-46
2022/02/12 03:22:00;;;;;;;2.95;2.08;;;;;;;;;;5054958;28;20107;-45
2022/02/12 03:24:27;;;;;;;4.15;2.13;;;;;;;;;;5054940;28;20036;-45
2022/02/12 03:26:53;;;;;;;4.03;2.40;;;;;;;;;;5055155;28;20111;-45
2022/02/12 03:29:19;;;;;;;3.65;2.00;;;;;;;;;;5054765;28;20048;-44
2022/02/12 03:31:45;;;;;;;4.53;2.00;;;;;;;;;;5055108;28;20029;-44
2022/02/12 03:34:11;;;;;;;3.70;1.98;;;;;;;;;;5054771;28;20032;-45
2022/02/12 03:36:37;;;;;;;3.15;1.75;;;;;;;;;;5054529;28;20071;-45
2022/02/12 03:39:03;;;;;;;2.80;2.08;;;;;;;;;;5054643;28;20025;-44
2022/02/12 03:41:29;;;;;;;3.60;2.03;;;;;;;;;;5054674;28;20035;-44
2022/02/12 03:43:55;;;;;;;6.10;2.22;;;;;;;;;;5054692;28;20368;-45
2022/02/12 03:46:21;;;;;;;3.85;1.90;;;;;;;;;;5054647;28;20025;-45
2022/02/12 03:48:47;;;;;;;3.40;1.80;;;;;;;;;;5054437;28;20044;-44
2022/02/12 03:51:16;;;;;;;3.05;1.95;;;;;;;;;;5054440;28;20029;-45
2022/02/12 03:53:42;;;;;;;4.85;2.17;;;;;;;;;;5054404;28;20025;-45
2022/02/12 03:56:08;;;;;;;3.60;1.85;;;;;;;;;;5054282;28;20499;-44
2022/02/12 03:58:34;;;;;;;4.80;2.20;;;;;;;;;;5054301;28;20139;-45
2022/02/12 04:01:00;;;;;;;4.45;1.90;;;;;;;;;;5054248;28;20036;-45
2022/02/12 04:03:26;;;;;;;2.97;2.30;;;;;;;;;;5054274;28;20151;-44
2022/02/12 04:05:51;;;;;;;3.33;1.85;;;;;;;;;;5054437;28;20028;-46
2022/02/12 04:08:18;;;;;;;3.33;1.75;;;;;;;;;;5053992;28;20044;-45
2022/02/12 04:10:45;;;;;;;3.13;1.95;;;;;;;;;;5054078;28;20464;-45
2022/02/12 04:13:11;;;;;;;3.95;2.05;;;;;;;;;;5054242;28;20029;-45
2022/02/12 04:15:37;;;;;;;5.03;1.92;;;;;;;;;;5053924;28;20025;-45
2022/02/12 04:18:03;;;;;;;3.83;1.88;;;;;;;;;;5054017;28;20557;-45
2022/02/12 04:20:29;;;;;;;3.53;1.83;;;;;;;;;;5053938;28;20143;-44
2022/02/12 04:22:55;;;;;;;3.83;1.90;;;;;;;;;;5054189;28;20565;-45
2022/02/12 04:25:22;;;;;;;5.97;2.40;;;14.90;91.00;;;;;;5053867;28;20061;-45
2022/02/12 04:27:48;;;;;;;4.63;1.98;;;;;;;;;;5053754;28;20096;-45
2022/02/12 04:30:15;;;;;;;3.53;2.20;;;;;;;;;;5053704;28;20033;-45
2022/02/12 04:32:41;;;;;;;3.65;2.08;;;;;;;;;;5053728;28;20021;-46
2022/02/12 04:35:09;;;;;;;5.05;2.00;;;14.90;91.00;;;;;;5053490;28;20053;-47
2022/02/12 04:37:36;;;;;;;3.85;2.03;;;;;;;;;;5053557;28;20028;-45
2022/02/12 04:40:02;;;;;;;2.70;1.90;;;;;;;;;;5053038;28;20044;-45
2022/02/12 04:42:28;;;;;;;6.10;2.08;;;;;;;;;;5053562;28;20345;-45
2022/02/12 04:44:54;;;;;;;5.28;2.08;;;;;;;;;;5053431;28;20032;-46
2022/02/12 04:47:22;;;;;;;4.28;2.08;;;14.80;91.00;;;;;;5053333;28;20040;-45
2022/02/12 04:49:49;;;;;;;4.25;2.00;;;;;;;;;;5053185;28;20036;-46
2022/02/12 04:52:15;;;;;;;4.80;2.22;;;;;;;;;;5053302;28;20017;-46
2022/02/12 04:54:42;;;;;;;3.72;2.15;;;;;;;;;;5053257;28;20033;-45
2022/02/12 04:57:08;;;;;;;4.80;2.33;;;;;;;;;;5053197;28;20064;-45
2022/02/12 04:59:34;;;;;;;3.92;2.03;;;;;;;;;;5053252;28;20033;-44
2022/02/12 05:02:00;;;;;;;3.38;1.75;;;;;;;;;;5053137;28;20078;-45
2022/02/12 05:04:26;;;;;;;5.15;2.08;;;;;;;;;;5053007;28;20029;-45
2022/02/12 05:06:52;;;;;;;5.00;2.13;;;;;;;;;;5053074;28;20329;-45
2022/02/12 05:09:19;;;;;;;3.33;2.00;;;;;;;;;;5052953;28;20044;-45
2022/02/12 05:11:46;;;;;;;6.88;2.10;;;;;;;;;;5052908;28;20036;-45
2022/02/12 05:14:12;;;;;;;4.03;1.80;;;;;;;;;;5052842;28;20029;-45
2022/02/12 05:16:38;;;;;;;3.92;2.00;;;;;;;;;;5052817;28;20468;-44
2022/02/12 05:19:04;;;;;;;5.35;2.10;;;;;;;;;;5052823;28;20040;-45
2022/02/12 05:21:30;;;;;;;3.17;2.15;;;;;;;;;;5052689;28;20494;-45
2022/02/12 05:23:56;;;;;;;3.35;2.28;;;;;;;;;;5052680;28;20075;-45
2022/02/12 05:26:22;;;;;;;3.97;2.22;;;;;;;;;;5052636;28;20064;-44
2022/02/12 05:28:48;;;;;;;3.28;1.90;;;;;;;;;;5052478;28;20510;-45
2022/02/12 05:31:14;;;;;;;5.90;2.58;;;;;;;;;;5052587;28;20027;-45
2022/02/12 05:33:40;;;;;;;5.53;2.22;;;;;;;;;;5052485;28;20033;-45
2022/02/12 05:36:09;;;;;;;3.53;1.88;;;;;;;;;;5052318;28;20045;-46
2022/02/12 05:38:36;;;;;;;3.47;2.13;;;14.50;90.80;;;;;;5052406;28;20029;-45
2022/02/12 05:41:03;;;;;;;3.28;1.90;;;;;;;;;;5052472;28;20025;-45
2022/02/12 05:43:31;;;;;;;2.90;1.88;;;;;;;;;;5052466;28;20368;-45
2022/02/12 05:45:56;;;;;;;3.95;2.25;;;;;;;;;;5052599;28;20037;-45
2022/02/12 05:48:22;;;;;;;4.45;2.38;;;;;;;;;;5052262;28;20452;-45
2022/02/12 05:50:48;;;;;;;5.95;2.80;;;;;;;;;;5052290;28;20487;-45
2022/02/12 05:53:14;;;;;;;4.70;2.05;;;;;;;;;;5051446;28;20025;-44
2022/02/12 05:55:40;;;;;;;3.45;2.10;;;;;;;;;;5052215;28;20033;-45
2022/02/12 05:58:06;;;;;;;4.70;2.17;;;;;;;;;;5052192;28;20029;-45
2022/02/12 06:00:32;;;;;;;3.25;1.70;;;;;;;;;;5052142;28;20471;-45
2022/02/12 06:02:58;;;;;;;5.55;2.50;;;;;;;;;;5052083;28;20392;-45
2022/02/12 06:05:24;;;;;;;3.45;2.20;;;;;;;;;;5051983;28;20106;-45
2022/02/12 06:07:50;;;;;;;5.05;2.35;;;;;;;;;;5051893;28;20363;-45
2022/02/12 06:10:16;;;;;;;6.30;2.25;;;;;;;;;;5051986;28;20102;-45
2022/02/12 06:12:42;;;;;;;3.90;2.22;;;;;;;;;;5052199;28;20200;-45
2022/02/12 06:15:09;;;;;;;4.10;2.20;;;15.00;89.80;;;;;;5051787;28;20061;-45
2022/02/12 06:17:35;;;;;;;4.35;2.00;;;;;;;;;;5051990;28;20111;-45
2022/02/12 06:20:01;;;;;;;5.22;2.33;;;;;;;;;;5051893;28;20029;-45
2022/02/12 06:22:28;;;;;;;3.05;1.98;;;;;;;;;;5051935;28;20043;-45
2022/02/12 06:24:54;;;;;;;6.50;2.30;;;;;;;;;;5051913;28;20026;-45
2022/02/12 06:27:20;;;;;;;5.15;2.28;;;;;;;;;;5051940;28;20113;-44
2022/02/12 06:29:47;;;;;;;3.33;2.10;;;;;;;;;;5051779;28;20037;-45
2022/02/12 06:32:13;;;;;;;2.97;1.98;;;;;;;;;;5051990;28;20048;-45
2022/02/12 06:34:38;;;;;;;3.53;2.05;;;;;;;;;;5051908;28;20033;-45
2022/02/12 06:37:05;;;;;;;5.20;2.50;;;;;;;;;;5051609;28;20045;-45
2022/02/12 06:39:32;;;;;;;5.03;2.53;;;;;;;;;;5051830;28;20383;-45
2022/02/12 06:41:58;;;;;;;4.97;2.03;;;;;;;;;;5051690;28;20426;-47
2022/02/12 06:44:24;;;;;;;3.97;2.10;;;;;;;;;;5051759;28;20029;-45
2022/02/12 06:46:50;;;;;;;3.80;1.88;;;;;;;;;;5051716;28;20033;-45
2022/02/12 06:49:16;;;;;;;3.75;1.90;;;;;;;;;;5051684;28;20037;-45
2022/02/12 06:51:42;;;;;;;4.07;1.90;;;;;;;;;;5051754;28;20104;-45
2022/02/12 06:54:08;;;;;;;4.78;1.85;;;;;;;;;;5051617;28;20029;-45
2022/02/12 06:56:34;;;;;;;3.17;1.70;;;;;;;;;;5051680;28;20087;-45
2022/02/12 06:59:00;;;;;;;3.95;1.80;;;;;;;;;;5051526;28;20464;-45
2022/02/12 07:01:27;;;;;;;4.45;2.15;;;;;;;;;;5051562;28;20030;-45
2022/02/12 07:03:53;;;;;;;4.65;2.17;;;;;;;;;;5053108;28;20364;-45
2022/02/12 07:06:19;;;;;;;5.18;2.30;;;;;;;;;;5054026;28;20514;-45
2022/02/12 07:08:45;;;;;;;4.45;2.30;;;;;;;;;;5055294;28;20072;-45
2022/02/12 07:11:11;;;;;;;4.57;1.80;;;;;;;;;;5055225;28;20053;-45
2022/02/12 07:13:37;;;;;;;2.78;1.83;;;;;;;;;;5055190;28;20029;-45
2022/02/12 07:16:04;;;;;;;4.10;2.58;;;;;;;;;;5055056;28;20025;-45
2022/02/12 07:18:30;;;;;;;6.00;2.10;;;;;;;;;;5055191;28;20029;-46
2022/02/12 07:20:56;;;;;;;4.30;2.03;;;;;;;;;;5055019;28;20089;-45
2022/02/12 07:23:22;;;;;;;4.00;2.22;;;;;;;;;;5055024;28;20499;-44
2022/02/12 07:25:48;;;;;;;4.88;2.25;;;;;;;;;;5055018;28;20040;-46
2022/02/12 07:28:14;;;;;;;3.85;2.17;;;;;;;;;;5054783;28;20029;-45
2022/02/12 07:30:41;;;;;;;4.18;2.13;;;;;;;;;;5054831;28;20158;-45
2022/02/12 07:33:07;;;;;;;3.63;2.22;;;;;;;;;;5054739;28;20024;-45
2022/02/12 07:35:33;;;;;;;2.60;1.80;;;;;;;;;;5054354;28;20080;-45
2022/02/12 07:37:59;;;;;;;6.20;2.45;;;;;;;;;;5054509;28;20391;-45
2022/02/12 07:40:26;;;;;;;4.30;2.42;;;;;;;;;;5054706;28;20051;-45
2022/02/12 07:42:52;;;;;;;7.10;2.35;;;;;;;;;;5054456;28;20029;-45
2022/02/12 07:45:18;;;;;;;6.05;2.22;;;;;;;;;;5054449;28;20345;-45
2022/02/12 07:47:44;;;;;;;4.35;2.30;;;;;;;;;;5054179;28;20087;-46
2022/02/12 07:50:11;;;;;;;3.20;2.22;;;;;;;;;;5054330;28;20514;-47
2022/02/12 07:52:38;;;;;;;3.67;2.30;;;15.20;88.90;;;;;;5054391;28;20021;-46
2022/02/12 07:55:04;;;;;;;5.25;2.50;;;;;;;;;;5054366;28;20033;-45
2022/02/12 07:57:30;;;;;;;5.80;2.45;;;;;;;;;;5054273;28;20102;-46
2022/02/12 07:59:56;;;;;;;4.68;2.65;;;;;;;;;;5054195;28;20029;-46
2022/02/12 08:02:23;;;;;;;4.13;2.50;;;;;;;;;;5054105;28;20028;-45
2022/02/12 08:04:49;;;;;;;5.72;2.75;;;;;;;;;;5054109;28;20040;-45
2022/02/12 08:07:30;;;;;;;5.93;2.83;;;;;;;;;;5053998;28;20033;-47
2022/02/12 08:09:57;;;;;;;4.82;2.83;;;;;;;;;;5053891;28;20036;-46
2022/02/12 08:12:23;;;;;;;4.53;2.47;;;;;;;;;;5053858;28;20067;-46
2022/02/12 08:14:53;;;;;;;5.78;2.85;;;15.90;90.60;;;;;;5053252;28;20032;-46
2022/02/12 08:17:20;;;;;;;5.03;2.50;;;;;;;;;;5053677;28;20024;-45
2022/02/12 08:19:47;;;;;;;8.02;3.13;;;;;;;;;;5053789;28;20088;-46
2022/02/12 08:22:13;;;;;;;6.88;3.25;;;;;;;;;;5053770;28;20047;-45
2022/02/12 08:24:39;;;;;;;4.88;2.50;;;;;;;;;;5053771;28;20021;-45
2022/02/12 08:27:05;;;;;;;6.35;2.70;;;;;;;;;;5053926;28;20029;-46
2022/02/12 08:32:53;;;;;;;3.30;2.35;;;;;;;;;;5053893;28;20115;-46
2022/02/12 08:35:19;;;;;;;5.22;2.95;;;;;;;;;;5053441;28;20124;-45
2022/02/12 08:37:45;;;;;;;5.22;2.63;;;;;;;;;;5053983;28;20063;-46
2022/02/12 08:40:18;;;;;;;8.65;3.22;;;;;;;;;;5053560;28;20399;-46
2022/02/12 08:42:44;;;;;;;5.30;2.58;;;;;;;;;;5053729;28;20052;-46
2022/02/12 08:45:10;;;;;;;6.05;3.15;;;;;;;;;;5053634;28;20028;-47
2022/02/12 08:47:37;;;;;;;7.43;3.20;;;16.10;89.80;;;;;;5053321;28;20399;-45
2022/02/12 08:50:03;;;;;;;8.48;2.88;;;;;;;;;;5053325;28;20060;-45
2022/02/12 08:52:29;;;;;;;10.25;2.47;;;;;;;;;;5053319;28;20028;-45
2022/02/12 08:54:55;;;;;;;6.35;2.38;;;;;;;;;;5053261;28;20033;-45
2022/02/12 08:57:21;;;;;;;9.20;2.35;;;;;;;;;;5053270;28;20509;-44
2022/02/12 08:59:47;;;;;;;7.78;2.85;;;;;;;;;;5053192;28;20025;-45
2022/02/12 09:02:13;;;;;;;6.03;2.78;;;;;;;;;;5053155;28;20029;-45
2022/02/12 09:04:40;;;;;;;7.05;2.72;;;;;;;;;;5053113;28;20024;-45
2022/02/12 09:07:06;;;;;;;7.18;2.83;;;;;;;;;;5053118;28;20112;-45
2022/02/12 09:09:32;;;;;;;5.45;2.38;;;;;;;;;;5052847;28;20094;-45
2022/02/12 09:11:58;;;;;;;6.68;2.90;;;;;;;;;;5053009;28;20029;-46
2022/02/12 09:14:24;;;;;;;10.23;2.67;;;;;;;;;;5052884;28;20064;-45
2022/02/12 09:16:50;;;;;;;8.48;2.63;;;;;;;;;;5052867;28;20060;-44
2022/02/12 09:19:16;;;;;;;4.22;2.20;;;;;;;;;;5052971;28;20123;-44
2022/02/12 09:21:42;;;;;;;4.22;2.55;;;;;;;;;;5052617;28;20051;-44
2022/02/12 09:24:08;;;;;;;4.43;2.63;;;;;;;;;;5051546;28;20039;-45
2022/02/12 09:26:34;;;;;;;5.88;2.35;;;;;;;;;;5052522;28;20029;-45
2022/02/12 09:29:01;;;;;;;5.13;2.42;;;;;;;;;;5052570;28;20041;-44
2022/02/12 09:31:27;;;;;;;5.63;2.47;;;;;;;;;;5052572;28;20070;-45
2022/02/12 09:33:53;;;;;;;5.55;1.98;;;;;;;;;;5052664;28;20463;-44
2022/02/12 09:36:19;;;;;;;9.60;2.65;;;;;;;;;;5052526;28;20423;-46
2022/02/12 09:38:45;;;;;;;4.95;2.10;;;;;;;;;;5052456;28;20032;-44
2022/02/12 09:41:13;;;;;;;5.63;2.45;;;17.30;88.60;;;;;;5052495;28;20032;-44
2022/02/12 09:43:40;;;;;;;6.10;2.25;;;;;;;;;;5052358;28;20507;-44
2022/02/12 09:46:27;;;;;;;4.10;1.90;;;17.30;82.70;;;;;;5052582;28;20028;-44
2022/02/12 09:48:54;;;;;;;7.10;2.05;;;;;;;;;;5051132;28;20559;-44
2022/02/12 09:51:20;;;;;;;4.57;2.30;;;;;;;;;;5052715;28;20036;-43
2022/02/12 09:53:46;;;;;;;5.72;2.83;;;;;;;;;;5052817;28;20436;-44
2022/02/12 09:56:12;;;;;;;4.30;2.13;;;;;;;;;;5052473;28;20099;-46
2022/02/12 09:58:38;;;;;;;6.68;2.30;;;;;;;;;;5052374;28;20530;-43
2022/02/12 10:01:04;;;;;;;4.63;2.30;;;;;;;;;;5052501;28;20368;-44
2022/02/12 10:03:30;;;;;;;5.25;2.55;;;;;;;;;;5052329;28;20032;-44
2022/02/12 10:05:56;;;;;;;4.55;2.10;;;;;;;;;;5052258;28;20033;-44
2022/02/12 10:08:23;;;;;;;5.88;2.20;;;17.40;88.60;;;;;;5052218;28;20045;-43
2022/02/12 10:10:52;;;;;;;5.80;2.25;;;;;;;;;;5052505;28;20505;-44
2022/02/12 10:13:19;;;;;;;4.22;2.03;;;;;;;;;;5052256;28;20028;-44
2022/02/12 10:15:55;;;;;;;4.82;2.10;;;;;;;;;;5052096;28;20450;-44
2022/02/12 10:18:23;;;;;;;3.90;1.88;;;17.40;88.60;;;;;;5052269;28;20033;-44
2022/02/12 10:20:49;;;;;;;5.45;2.25;;;;;;;;;;5051994;28;20072;-44
2022/02/12 10:23:20;;;;;;;7.20;2.50;;;;;;;;;;5052135;28;20040;-44
2022/02/12 10:25:47;;;;;;;5.50;2.40;;;17.40;88.30;;;;;;5052098;28;20108;-44
2022/02/12 10:28:15;;;;;;;4.82;2.50;;;;;;;;;;5052025;28;20501;-44
2022/02/12 10:30:43;;;;;;;6.13;2.50;;;17.40;87.90;;;;;;5052421;28;20505;-44
2022/02/12 10:33:09;;;;;;;5.97;2.25;;;;;;;;;;5052143;28;20419;-44
2022/02/12 10:35:37;;;;;;;6.03;2.45;;;17.40;87.60;;;;;;5051886;28;20053;-44
2022/02/12 10:38:10;;;;;;;4.72;1.95;;;;;;;;;;5052119;28;20622;-44
2022/02/12 10:40:36;;;;;;;6.57;1.85;;;;;;;;;;5055673;28;20029;-44
2022/02/12 10:43:02;;;;;;;5.10;2.05;;;;;;;;;;5055721;28;20028;-44
2022/02/12 10:45:29;;;;;;;7.55;1.80;;;;;;;;;;5055396;28;20033;-44
2022/02/12 10:47:57;;;;;;;6.30;2.28;;;;;;;;;;5055498;28;20029;-45
2022/02/12 10:50:24;;;;;;;3.97;2.30;;;;;;;;;;5055875;28;20403;-45
2022/02/12 10:52:52;;;;;;;4.13;2.05;;;17.30;88.50;;;;;;5055745;28;20024;-44
2022/02/12 10:55:36;;;;;;;6.07;2.05;;;17.30;86.40;;;;;;5055728;28;20471;-44
2022/02/12 10:58:07;;;;;;;5.30;2.00;;;17.30;83.30;;;;;;5055962;28;20027;-44
2022/02/12 11:00:35;;;;;;;3.90;1.90;;;17.30;90.50;;;;;;5055630;28;20028;-43
2022/02/12 11:03:05;;;;;;;3.80;1.83;;;;;;;;;;5055479;28;20480;-45
2022/02/12 11:05:32;;;;;;;5.03;1.98;;;17.30;90.80;;;;;;5055617;28;20051;-44
2022/02/12 11:07:59;;;;;;;5.28;2.30;;;17.20;91.10;;;;;;5055532;28;20104;-44
2022/02/12 11:10:25;;;;;;;5.05;2.70;;;;;;;;;;5055514;28;20108;-44
2022/02/12 11:12:51;;;;;;;4.28;1.63;;;;;;;;;;5055408;28;20501;-44
2022/02/12 11:15:18;;;;;;;4.90;2.13;;;;;;;;;;5055257;28;20029;-44
2022/02/12 11:17:45;;;;;;;3.72;1.70;;;17.10;91.50;;;;;;5055396;28;20494;-44
2022/02/12 11:20:12;;;;;;;5.65;2.08;;;;;;;;;;5055336;28;20025;-44
2022/02/12 11:22:39;;;;;;;6.88;2.20;;;17.00;91.60;;;;;;5055563;28;20171;-44
2022/02/12 11:25:35;;;;;;;3.58;1.55;;;17.00;91.90;;;;;;5055251;28;20486;-44
2022/02/12 11:28:11;;;;;;;4.38;1.92;;;;;;;;;;5055333;28;20028;-44
2022/02/12 11:30:42;;;;;;;4.20;2.08;;;16.90;87.80;;;;;;5055147;28;20057;-44
2022/02/12 11:33:07;;;;;;;;;;;;;;;;;;5055423;28;20021;-44
2022/02/12 11:35:33;;;;;;;5.13;1.67;;;;;;;;;;5054767;28;19923;-44
2022/02/12 11:37:59;;;;;;;5.88;1.60;;;;;;;;;;5055185;28;20029;-44
2022/02/12 11:40:30;;;;;;;4.78;1.90;;;16.80;88.10;;;;;;5054953;28;20480;-44
2022/02/12 11:43:05;;;;;;;2.42;1.50;;;16.80;88.30;;;;;;5054875;28;20029;-47
2022/02/12 11:45:37;;;;;;;4.70;2.08;;;16.70;88.20;;;;;;5054891;28;20029;-45
2022/02/12 11:48:27;;;;;;;6.93;1.90;;;16.70;88.50;;;;;;5054590;28;20028;-44
2022/02/12 11:51:02;;;;;;;2.20;1.25;;;;;;;;;;5053548;28;20112;-45
2022/02/12 11:53:28;;;;;;;3.65;1.55;;;;;;;;;;5054658;28;20033;-44
2022/02/12 11:55:54;;;;;;;7.20;2.38;;;;;;;;;;5054614;28;20021;-45
2022/02/12 11:58:43;;;;;;;5.25;1.80;;;16.60;92.10;;;;;;5054526;28;20488;-45
2022/02/12 12:01:35;;;;;;;5.20;1.55;;;16.50;88.20;;;;;;5054533;28;20100;-45
2022/02/12 12:04:01;;;;;;;5.97;1.50;;;;;;;;;;5054608;28;20029;-46
2022/02/12 12:06:27;;;;;;;4.43;1.60;;;;;;;;;;5054435;28;20056;-46
2022/02/12 12:09:19;;;;;;;5.38;1.90;;;16.40;92.20;;;;;;5054395;28;20037;-46
2022/02/12 12:12:05;;;;;;;8.13;1.58;;;;;;;;;;5053244;28;20045;-46
2022/02/12 12:14:32;;;;;;;5.80;1.67;;;;;;;;;;5054245;28;20483;-46
2022/02/12 12:16:59;;;;;;;4.53;1.88;;;16.30;92.30;;;;;;5054159;28;20033;-45
2022/02/12 12:19:29;;;;;;;5.65;1.73;;;16.30;92.20;;;;;;5054149;28;20021;-46
2022/02/12 12:21:56;;;;;;;6.60;2.17;;;;;;;;;;5054159;28;20112;-45
2022/02/12 12:24:22;;;;;;;4.60;1.90;;;;;;;;;;5054080;28;20080;-45
2022/02/12 12:26:49;;;;;;;4.32;1.35;;;;;;;;;;5053962;28;20057;-45
2022/02/12 12:32:02;;;;;;;3.50;1.58;;;;;;;;;;5054201;28;20036;-45
2022/02/12 12:34:28;;;;;;;4.90;1.95;;;;;;;;;;5053813;28;20491;-45
2022/02/12 12:36:56;;;;;;;4.43;1.80;;;16.10;92.60;;;;;;5053711;28;20041;-45
2022/02/12 12:39:30;;;;;;;5.85;1.60;;;;;;;;;;5053824;28;20503;-46
2022/02/12 12:41:56;;;;;;;7.45;1.90;;;;;;;;;;5053841;28;20103;-47
2022/02/12 12:44:27;;;;;;;6.03;1.67;;;;;;;;;;5053665;28;20039;-45
2022/02/12 12:46:53;;;;;;;4.72;1.58;;;;;;;;;;5053968;28;20036;-46
2022/02/12 12:49:30;;;;;;;5.00;1.63;;;;;;;;;;5053492;28;20045;-46
2022/02/12 12:51:57;;;;;;;4.40;1.73;;;;;;;;;;5053533;28;20464;-46
2022/02/12 12:54:43;;;;;;;4.15;1.45;;;16.40;95.00;;;;;;5053498;28;20357;-46
2022/02/12 12:57:11;;;;;;;3.70;1.63;;;16.40;95.10;;;;;;5053513;28;20479;-46
2022/02/12 12:59:53;;;;;;;4.72;1.52;;;;;;;;;;5053349;28;20033;-46
2022/02/12 13:02:20;;;;;;;3.35;1.40;;;16.50;93.70;;;;;;5052946;28;20029;-46
2022/02/12 13:04:48;;;;;;;3.40;1.27;;;;;;;;;;5053208;28;20032;-46
2022/02/12 13:07:19;;;;;;;2.97;1.50;;;;;;;;;;5053208;28;20025;-46
2022/02/12 13:09:46;;;;;;;3.55;1.55;;;;;;;;;;5053404;28;20137;-46
2022/02/12 13:12:32;;;;;;;3.92;1.20;;;16.80;92.80;;;;;;5053127;28;20052;-46
2022/02/12 13:14:59;;;;;;;4.78;1.13;;;;;;;;;;5053164;28;20388;-46
2022/02/12 13:17:25;;;;;;;5.40;1.50;;;;;;;;;;5053082;28;20031;-45
2022/02/12 13:19:57;;;;;;;3.50;1.23;;;16.80;95.80;;;;;;5052983;28;20033;-45
2022/02/12 13:22:23;;;;;;;2.25;1.20;;;;;;;;;;5053233;28;20035;-45
2022/02/12 13:24:55;;;;;;;4.00;1.73;;;16.80;93.00;;;;;;5053227;28;20013;-45
2022/02/12 13:27:26;;;;;;;3.17;1.17;;;16.80;93.40;;;;;;5052903;28;20458;-45
2022/02/12 13:30:02;;;;;;;4.70;1.20;;;;;;;;;;5052770;28;20037;-45
2022/02/12 13:32:40;;;;;;;2.58;1.00;;;16.80;93.10;;;;;;5052802;28;20029;-45
2022/02/12 13:35:14;;;;;;;4.32;1.20;;;16.80;96.50;;;;;;5052594;28;20121;-45
2022/02/12 13:37:42;;;;;;;1.73;1.00;;;;;;;;;;5052711;28;20063;-45
2022/02/12 13:40:10;;;;;;;2.50;1.20;;;;;;;;;;5052898;28;20053;-45
2022/02/12 13:42:37;;;;;;;2.30;1.05;;;;;;;;;;5052561;28;20033;-46
2022/02/12 13:45:04;;;;;;;2.95;1.08;;;16.90;96.30;;;;;;5052633;28;20027;-45
2022/02/12 13:47:31;;;;;;;1.92;0.85;;;;;;;;;;5052491;28;20091;-45
2022/02/12 13:49:56;;;;;;;2.20;1.27;;;;;;;;;;5052429;28;20518;-45
2022/02/12 13:52:23;;;;;;;2.58;1.00;;;;;;;;;;5052529;28;20056;-45
2022/02/12 13:55:09;;;;;;;1.55;0.82;;;;;;;;;;5052474;28;20104;-45
2022/02/12 13:57:35;;;;;;;3.17;1.27;;;;;;;;;;5052416;28;20516;-45
2022/02/12 14:00:01;;;;;;;2.92;1.17;;;;;;;;;;5052422;28;20074;-45
2022/02/12 14:02:27;;;;;;;3.38;1.23;;;;;;;;;;5052178;28;20052;-45
2022/02/12 14:04:54;;;;;;;2.58;0.90;;;;;;;;;;5050817;28;20025;-46
2022/02/12 14:07:20;;;;;;;2.78;0.90;;;;;;;;;;5052375;28;20028;-45
2022/02/12 14:09:46;;;;;;;2.03;0.73;;;;;;;;;;5052034;28;20395;-45
2022/02/12 14:12:12;;;;;;;4.00;1.30;;;;;;;;;;5052185;28;20032;-45
2022/02/12 14:14:38;;;;;;;1.60;1.20;;;;;;;;;;5051235;28;20482;-45
2022/02/12 14:17:04;;;;;;;2.60;1.08;;;;;;;;;;5051903;28;20048;-45
2022/02/12 14:19:30;;;;;;;1.45;0.88;;;;;;;;;;5052182;28;20483;-45
2022/02/12 14:21:56;;;;;;;3.13;1.10;;;;;;;;;;5052142;28;20475;-45
2022/02/12 14:24:23;;;;;;;4.75;1.25;;;;;;;;;;5052099;28;20033;-45
2022/02/12 14:26:50;;;;;;;2.38;0.93;;;;;;;;;;5052321;28;20048;-45
2022/02/12 14:29:16;;;;;;;3.00;0.80;;;;;;;;;;5052036;28;20037;-46
2022/02/12 14:31:42;;;;;;;2.33;1.10;;;;;;;;;;5052072;28;20031;-46
2022/02/12 14:34:08;;;;;;;2.67;0.98;;;;;;;;;;5052085;28;20048;-46
2022/02/12 14:36:34;;;;;;;4.13;1.50;;;;;;;;;;5051862;28;20037;-46